Time;durP1;ratioP1;P1;durP2;ratioP2;P2;SDS_P1;SDS_P2;PMS_P1;PMS_P2;Temp;Humidity;BMP_temperature;BMP_pressure;BME280_temperature;BME280_humidity;BME280_pressure;Samples;Min_cycle;Max_cycle;Signal;HPM_P1;HPM_P2
2021/12/01 00:01:03;;;;;;;14.32;5.60;;;9.40;99.90;;;;;;5050496;28;20504;-78
2021/12/01 00:03:29;;;;;;;16.05;5.70;;;9.40;99.90;;;;;;5074679;28;20050;-81
2021/12/01 00:05:55;;;;;;;14.30;4.95;;;9.40;99.90;;;;;;5086418;28;20039;-79
2021/12/01 00:08:21;;;;;;;18.23;5.63;;;9.40;99.90;;;;;;5068630;28;20100;-78
2021/12/01 00:10:48;;;;;;;11.13;4.35;;;9.50;99.90;;;;;;5075907;28;20047;-78
2021/12/01 00:13:18;;;;;;;11.98;4.00;;;9.50;99.90;;;;;;5094011;28;20040;-81
2021/12/01 00:15:46;;;;;;;13.95;3.80;;;9.50;99.90;;;;;;5093450;28;20082;-79
2021/12/01 00:18:12;;;;;;;10.98;3.60;;;9.40;99.90;;;;;;5070673;28;20496;-81
2021/12/01 00:20:38;;;;;;;9.48;3.50;;;9.50;99.90;;;;;;5041047;28;20055;-80
2021/12/01 00:23:04;;;;;;;17.73;3.92;;;9.50;99.90;;;;;;5059097;28;20058;-79
2021/12/01 00:25:32;;;;;;;12.88;4.10;;;9.40;99.90;;;;;;5090358;28;20044;-80
2021/12/01 00:27:58;;;;;;;10.13;3.85;;;9.50;99.90;;;;;;5093363;28;20507;-79
2021/12/01 00:30:25;;;;;;;13.27;4.15;;;9.40;99.90;;;;;;5049151;28;20056;-80
2021/12/01 00:32:55;;;;;;;12.63;4.53;;;9.40;99.90;;;;;;5072978;28;20044;-79
2021/12/01 00:35:21;;;;;;;11.50;4.35;;;9.50;99.90;;;;;;5071855;28;20040;-79
2021/12/01 00:37:47;;;;;;;9.45;3.42;;;9.50;99.90;;;;;;5060484;28;20078;-78
2021/12/01 00:40:13;;;;;;;11.15;3.80;;;9.50;99.90;;;;;;5074810;28;20078;-79
2021/12/01 00:42:40;;;;;;;16.92;4.50;;;9.50;99.90;;;;;;5072382;28;20071;-79
2021/12/01 00:45:15;;;;;;;8.13;3.70;;;9.50;99.90;;;;;;5074381;28;20046;-80
2021/12/01 00:47:43;;;;;;;13.20;4.10;;;9.50;99.90;;;;;;5071895;28;20039;-80
2021/12/01 00:50:22;;;;;;;14.48;4.20;;;9.50;99.90;;;;;;5092826;28;20044;-79
2021/12/01 00:52:48;;;;;;;11.40;3.95;;;9.40;99.90;;;;;;5066190;28;20434;-78
2021/12/01 00:55:14;;;;;;;12.98;4.25;;;9.50;99.90;;;;;;5092592;28;20054;-79
2021/12/01 00:57:40;;;;;;;14.05;4.45;;;9.50;99.90;;;;;;5091868;28;20044;-80
2021/12/01 01:00:08;;;;;;;14.70;4.88;;;9.50;99.90;;;;;;5093236;28;20104;-78
2021/12/01 01:02:34;;;;;;;12.15;3.70;;;9.50;99.90;;;;;;5090961;28;20050;-80
2021/12/01 01:05:00;;;;;;;11.77;3.90;;;9.30;99.90;;;;;;5091875;28;20044;-80
2021/12/01 01:07:26;;;;;;;16.10;3.88;;;9.50;99.90;;;;;;5037065;28;20059;-80
2021/12/01 01:09:52;;;;;;;12.80;3.42;;;9.50;99.90;;;;;;5072462;28;20098;-78
2021/12/01 01:18:08;;;;;;;12.10;2.90;;;9.50;99.90;;;;;;5078203;28;20039;-81
2021/12/01 01:20:34;;;;;;;11.18;2.90;;;9.60;99.90;;;;;;5069465;28;20043;-79
2021/12/01 01:23:01;;;;;;;12.35;3.10;;;9.60;99.90;;;;;;5074776;28;20197;-80
2021/12/01 01:25:28;;;;;;;12.57;2.90;;;9.60;99.90;;;;;;5076309;28;20522;-79
2021/12/01 01:27:54;;;;;;;11.85;3.25;;;9.60;99.90;;;;;;5094123;28;20050;-79
2021/12/01 01:30:19;;;;;;;12.43;2.83;;;9.70;99.90;;;;;;5093478;28;20122;-82
2021/12/01 01:32:45;;;;;;;13.50;2.78;;;9.60;99.90;;;;;;5075644;28;20139;-79
2021/12/01 01:35:13;;;;;;;14.13;3.30;;;9.60;99.90;;;;;;5075991;28;20485;-81
2021/12/01 01:37:39;;;;;;;15.10;3.30;;;9.60;99.90;;;;;;5074656;28;20082;-79
2021/12/01 01:40:06;;;;;;;11.90;3.08;;;9.60;99.90;;;;;;5075508;28;20059;-79
2021/12/01 01:42:32;;;;;;;13.27;2.83;;;9.60;99.90;;;;;;5076187;28;20047;-79
2021/12/01 01:44:58;;;;;;;13.18;2.65;;;9.70;99.90;;;;;;5074949;28;20472;-80
2021/12/01 01:47:24;;;;;;;11.25;2.92;;;9.70;99.90;;;;;;5075302;28;20185;-80
2021/12/01 01:52:16;;;;;;;10.98;2.92;;;9.60;99.90;;;;;;5074972;28;20447;-80
2021/12/01 01:54:41;;;;;;;12.32;2.53;;;9.60;99.90;;;;;;5051828;28;20044;-79
2021/12/01 01:57:07;;;;;;;12.98;2.85;;;9.60;99.90;;;;;;5059590;28;20047;-79
2021/12/01 01:59:33;;;;;;;14.10;2.53;;;9.60;99.90;;;;;;5074837;28;20048;-80
2021/12/01 02:02:01;;;;;;;15.02;3.28;;;9.60;99.90;;;;;;5075687;28;20130;-79
2021/12/01 02:04:32;;;;;;;12.40;2.70;;;9.60;99.90;;;;;;5074312;28;20047;-79
2021/12/01 02:06:59;;;;;;;17.40;2.97;;;9.50;99.90;;;;;;5075185;28;20060;-79
2021/12/01 02:09:25;;;;;;;14.32;3.25;;;9.50;99.90;;;;;;5075345;28;20046;-81
2021/12/01 02:11:57;;;;;;;18.23;2.88;;;9.40;99.90;;;;;;5073751;28;20043;-78
2021/12/01 02:14:24;;;;;;;17.75;3.20;;;9.40;99.90;;;;;;5091776;28;20052;-80
2021/12/01 02:16:51;;;;;;;11.25;2.78;;;9.40;99.90;;;;;;5074419;28;20040;-79
2021/12/01 02:19:17;;;;;;;12.10;2.25;;;9.40;99.90;;;;;;5071022;28;20043;-80
2021/12/01 02:21:42;;;;;;;13.30;2.90;;;9.40;99.90;;;;;;5089677;28;20043;-80
2021/12/01 02:24:11;;;;;;;11.48;2.40;;;9.40;99.90;;;;;;5089177;28;20511;-78
2021/12/01 02:26:44;;;;;;;14.98;2.90;;;9.40;99.90;;;;;;5073445;28;20032;-79
2021/12/01 02:29:13;;;;;;;12.55;2.22;;;9.40;99.90;;;;;;5092051;28;20040;-78
2021/12/01 02:31:40;;;;;;;14.30;2.60;;;9.40;99.90;;;;;;5088337;28;20109;-80
2021/12/01 02:34:13;;;;;;;13.68;2.67;;;9.50;99.90;;;;;;5074792;28;20090;-79
2021/12/01 02:36:40;;;;;;;9.55;2.42;;;9.50;99.90;;;;;;5074514;28;20032;-79
2021/12/01 02:39:11;;;;;;;14.48;3.13;;;9.50;99.90;;;;;;5057491;28;20059;-80
2021/12/01 02:41:37;;;;;;;15.48;2.97;;;9.50;99.90;;;;;;5074481;28;20052;-79
2021/12/01 02:44:05;;;;;;;12.63;2.42;;;9.50;99.90;;;;;;5074681;28;20434;-80
2021/12/01 02:46:31;;;;;;;14.32;3.00;;;9.50;99.90;;;;;;5050410;28;20518;-79
2021/12/01 02:48:57;;;;;;;15.85;3.08;;;9.50;99.90;;;;;;5092044;28;20101;-80
2021/12/01 02:51:28;;;;;;;15.25;2.90;;;10.40;99.90;;;;;;5090534;28;20053;-80
2021/12/01 02:53:54;;;;;;;15.95;3.17;;;9.50;99.90;;;;;;5051606;28;20071;-79
2021/12/01 02:56:23;;;;;;;17.15;3.10;;;9.50;99.90;;;;;;5072201;28;20040;-80
2021/12/01 02:58:51;;;;;;;15.35;2.90;;;9.50;99.90;;;;;;5068061;28;20043;-79
2021/12/01 03:01:23;;;;;;;15.13;2.95;;;9.50;99.90;;;;;;5088044;28;20043;-80
2021/12/01 03:03:50;;;;;;;13.88;2.60;;;9.60;99.90;;;;;;5086978;28;20047;-79
2021/12/01 03:06:18;;;;;;;13.93;3.22;;;9.60;99.90;;;;;;5047434;28;20072;-79
2021/12/01 03:08:45;;;;;;;16.50;2.88;;;9.50;99.90;;;;;;5034499;28;20052;-80
2021/12/01 03:11:12;;;;;;;13.80;2.45;;;9.50;99.90;;;;;;5065505;28;20084;-79
2021/12/01 03:13:38;;;;;;;13.02;2.90;;;9.60;99.90;;;;;;5033956;28;20533;-79
2021/12/01 03:16:05;;;;;;;12.88;2.78;;;9.60;99.90;;;;;;5047474;28;20059;-80
2021/12/01 03:18:30;;;;;;;16.42;3.10;;;9.60;99.90;;;;;;5048595;28;20044;-79
2021/12/01 03:20:57;;;;;;;19.17;3.22;;;9.60;99.90;;;;;;5049173;28;20524;-80
2021/12/01 03:23:24;;;;;;;14.23;3.10;;;9.70;99.90;;;;;;5050952;28;20067;-79
2021/12/01 03:25:50;;;;;;;15.50;3.38;;;9.60;99.90;;;;;;5050456;28;20040;-79
2021/12/01 03:28:17;;;;;;;18.38;3.70;;;9.60;99.90;;;;;;5034369;28;20048;-78
2021/12/01 03:30:43;;;;;;;16.13;3.15;;;9.60;99.90;;;;;;5030293;28;20425;-80
2021/12/01 03:33:16;;;;;;;9.25;3.28;;;9.60;99.90;;;;;;5048669;28;20052;-80
2021/12/01 03:35:43;;;;;;;13.77;3.28;;;9.50;99.90;;;;;;5065382;28;20044;-79
2021/12/01 03:38:09;;;;;;;19.35;3.40;;;9.60;99.90;;;;;;5065371;28;20047;-80
2021/12/01 03:40:35;;;;;;;16.02;2.83;;;9.60;99.90;;;;;;5062218;28;20041;-79
2021/12/01 03:43:01;;;;;;;14.85;3.40;;;9.60;99.90;;;;;;5031840;28;20496;-80
2021/12/01 03:45:28;;;;;;;22.67;3.88;;;9.60;99.90;;;;;;5048078;28;20048;-80
2021/12/01 03:47:54;;;;;;;19.83;4.72;;;9.60;99.90;;;;;;5048375;28;20037;-80
2021/12/01 03:50:20;;;;;;;25.02;3.97;;;9.60;99.90;;;;;;5047222;28;20060;-79
2021/12/01 03:52:45;;;;;;;22.60;4.00;;;9.60;99.90;;;;;;5047655;28;20040;-79
2021/12/01 03:55:12;;;;;;;20.95;4.07;;;9.50;99.90;;;;;;5026471;28;20052;-79
2021/12/01 03:57:38;;;;;;;20.83;4.07;;;9.60;99.90;;;;;;5031558;28;20044;-81
2021/12/01 04:00:06;;;;;;;21.23;4.40;;;9.50;99.90;;;;;;5048617;28;20076;-79
2021/12/01 04:02:32;;;;;;;28.42;4.30;;;9.60;99.90;;;;;;5046692;28;20040;-80
2021/12/01 04:04:58;;;;;;;20.65;4.53;;;9.50;99.90;;;;;;5064975;28;20043;-79
2021/12/01 04:07:24;;;;;;;26.55;5.00;;;9.50;99.90;;;;;;5062005;28;20063;-80
2021/12/01 04:09:51;;;;;;;27.35;4.35;;;9.50;99.90;;;;;;5049722;28;20048;-80
2021/12/01 04:12:17;;;;;;;25.98;4.13;;;9.50;99.90;;;;;;5084142;28;20513;-79
2021/12/01 04:14:44;;;;;;;28.38;5.45;;;9.50;99.90;;;;;;5060531;28;20040;-79
2021/12/01 04:17:10;;;;;;;28.77;4.57;;;9.50;99.90;;;;;;5061328;28;20123;-80
2021/12/01 04:19:35;;;;;;;23.23;4.40;;;9.50;99.90;;;;;;5068911;28;20042;-79
2021/12/01 04:22:02;;;;;;;29.45;4.70;;;9.50;99.90;;;;;;5083747;28;20075;-78
2021/12/01 04:24:28;;;;;;;29.17;4.82;;;9.40;99.90;;;;;;5051871;28;20129;-80
2021/12/01 04:26:54;;;;;;;30.58;5.03;;;9.50;99.90;;;;;;5052156;28;20047;-79
2021/12/01 04:29:20;;;;;;;24.90;4.38;;;9.50;99.90;;;;;;5085549;28;20056;-80
2021/12/01 04:31:46;;;;;;;30.02;4.35;;;9.50;99.90;;;;;;5082136;28;20101;-79
2021/12/01 04:34:12;;;;;;;25.10;4.68;;;9.60;99.90;;;;;;5050795;28;20044;-79
2021/12/01 04:36:41;;;;;;;26.80;5.78;;;9.50;99.90;;;;;;5052913;28;20129;-80
2021/12/01 04:39:12;;;;;;;26.75;4.70;;;9.50;99.90;;;;;;5068619;28;20089;-80
2021/12/01 04:41:42;;;;;;;21.00;4.47;;;9.50;99.90;;;;;;5085269;28;20090;-80
2021/12/01 04:44:11;;;;;;;25.95;4.57;;;9.50;99.90;;;;;;5069905;28;20120;-79
2021/12/01 04:46:43;;;;;;;26.08;4.53;;;9.50;99.90;;;;;;5085707;28;20083;-80
2021/12/01 04:49:11;;;;;;;20.80;4.57;;;9.50;99.90;;;;;;5069686;28;20048;-79
2021/12/01 04:51:39;;;;;;;23.58;4.38;;;9.50;99.90;;;;;;5079050;28;20366;-80
2021/12/01 04:54:05;;;;;;;25.48;4.30;;;9.60;99.90;;;;;;5061902;28;20113;-80
2021/12/01 04:56:31;;;;;;;19.52;4.13;;;9.50;99.90;;;;;;5071022;28;20036;-82
2021/12/01 04:58:57;;;;;;;19.67;4.10;;;9.60;99.90;;;;;;5090650;28;20051;-80
2021/12/01 05:01:23;;;;;;;16.58;3.55;;;9.60;99.90;;;;;;5064497;28;20123;-79
2021/12/01 05:03:49;;;;;;;15.20;3.40;;;9.60;99.90;;;;;;5089033;28;20119;-79
2021/12/01 05:06:16;;;;;;;20.17;3.28;;;9.70;99.90;;;;;;5064165;28;20561;-79
2021/12/01 05:08:42;;;;;;;18.00;3.55;;;9.70;99.90;;;;;;5053489;28;20044;-79
2021/12/01 05:11:08;;;;;;;23.67;3.53;;;9.70;99.90;;;;;;5063471;28;20553;-79
2021/12/01 05:13:34;;;;;;;14.38;3.55;;;9.70;99.90;;;;;;5067890;28;20037;-81
2021/12/01 05:16:00;;;;;;;10.35;2.85;;;9.70;99.90;;;;;;5029243;28;20045;-79
2021/12/01 05:18:26;;;;;;;20.88;3.03;;;9.70;99.90;;;;;;5055952;28;20105;-81
2021/12/01 05:20:52;;;;;;;19.63;3.17;;;9.70;99.90;;;;;;5049627;28;20049;-80
2021/12/01 05:23:18;;;;;;;15.05;2.45;;;9.70;99.90;;;;;;5066677;28;20057;-80
2021/12/01 05:25:45;;;;;;;19.55;3.25;;;9.70;99.90;;;;;;5066319;28;20040;-80
2021/12/01 05:28:10;;;;;;;17.15;2.90;;;9.70;99.90;;;;;;5034755;28;20056;-80
2021/12/01 05:30:36;;;;;;;8.85;1.45;;;9.60;99.90;;;;;;5047109;28;20074;-81
2021/12/01 05:33:07;;;;;;;7.13;1.50;;;9.60;99.90;;;;;;5067633;28;20052;-79
2021/12/01 05:35:34;;;;;;;12.88;2.30;;;9.60;99.90;;;;;;5049861;28;20402;-81
2021/12/01 05:38:00;;;;;;;14.10;2.40;;;9.50;99.90;;;;;;5047663;28;20067;-80
2021/12/01 05:40:26;;;;;;;14.88;2.60;;;9.50;99.90;;;;;;5049382;28;20469;-80
2021/12/01 05:42:52;;;;;;;15.27;2.38;;;9.50;99.90;;;;;;5065902;28;20063;-79
2021/12/01 05:45:18;;;;;;;18.00;2.80;;;9.50;99.90;;;;;;5050714;28;20432;-79
2021/12/01 05:47:44;;;;;;;14.63;2.70;;;9.40;99.90;;;;;;5048701;28;20048;-79
2021/12/01 05:50:11;;;;;;;18.60;3.13;;;9.40;99.90;;;;;;5050447;28;20036;-79
2021/12/01 05:52:37;;;;;;;18.25;3.92;;;9.30;99.90;;;;;;5065030;28;20091;-80
2021/12/01 05:55:05;;;;;;;21.23;3.95;;;9.30;99.90;;;;;;5050263;28;20052;-79
2021/12/01 05:57:31;;;;;;;13.20;2.83;;;9.20;99.90;;;;;;5066087;28;20036;-79
2021/12/01 05:59:59;;;;;;;11.02;2.20;;;9.20;99.90;;;;;;5056686;28;20138;-79
2021/12/01 06:02:25;;;;;;;18.65;3.03;;;9.20;99.90;;;;;;5065829;28;20079;-79
2021/12/01 06:04:51;;;;;;;9.65;2.25;;;9.20;99.90;;;;;;5065025;28;20094;-78
2021/12/01 06:07:17;;;;;;;13.52;2.10;;;9.20;99.90;;;;;;5042451;28;20044;-79
2021/12/01 06:09:43;;;;;;;15.48;3.03;;;9.30;99.90;;;;;;5046034;28;20047;-79
2021/12/01 06:12:11;;;;;;;12.18;2.67;;;9.30;99.90;;;;;;5061619;28;20048;-79
2021/12/01 06:14:38;;;;;;;13.23;3.13;;;9.30;99.90;;;;;;5065232;28;20067;-80
2021/12/01 06:17:04;;;;;;;13.98;2.65;;;9.50;99.90;;;;;;5015313;28;20052;-80
2021/12/01 06:19:30;;;;;;;14.07;2.50;;;9.30;99.90;;;;;;5064853;28;20044;-80
2021/12/01 06:21:55;;;;;;;16.48;3.00;;;9.40;99.90;;;;;;5044499;28;20135;-80
2021/12/01 06:24:21;;;;;;;17.60;2.63;;;10.10;99.90;;;;;;5032244;28;20056;-79
2021/12/01 06:26:47;;;;;;;19.83;3.92;;;9.30;99.90;;;;;;5047703;28;20057;-80
2021/12/01 06:29:12;;;;;;;15.00;3.10;;;9.30;99.90;;;;;;5047244;28;20059;-79
2021/12/01 06:31:38;;;;;;;17.05;3.45;;;9.40;99.90;;;;;;5032946;28;20048;-81
2021/12/01 06:34:04;;;;;;;16.75;3.30;;;9.20;99.90;;;;;;5065042;28;20048;-79
2021/12/01 06:36:30;;;;;;;18.33;3.08;;;9.30;99.90;;;;;;5040881;28;20044;-78
2021/12/01 06:38:55;;;;;;;20.23;4.13;;;9.30;99.90;;;;;;5044593;28;20120;-79
2021/12/01 06:41:21;;;;;;;17.25;3.30;;;9.40;99.90;;;;;;5045874;28;20080;-80
2021/12/01 06:43:47;;;;;;;14.88;2.60;;;9.40;99.90;;;;;;5031665;28;20058;-80
2021/12/01 06:46:13;;;;;;;20.08;2.85;;;9.50;99.90;;;;;;5046825;28;20068;-78
2021/12/01 06:48:39;;;;;;;15.73;3.25;;;9.50;99.90;;;;;;5032595;28;20040;-81
2021/12/01 06:51:05;;;;;;;17.80;2.80;;;9.50;99.90;;;;;;5062739;28;20061;-79
2021/12/01 06:53:30;;;;;;;16.85;2.90;;;9.50;99.90;;;;;;5063163;28;20174;-80
2021/12/01 06:55:56;;;;;;;16.65;3.22;;;9.50;99.90;;;;;;5044635;28;20048;-77
2021/12/01 06:58:22;;;;;;;14.32;3.08;;;9.50;99.90;;;;;;5031352;28;20066;-77
2021/12/01 07:00:48;;;;;;;18.27;3.35;;;9.50;99.90;;;;;;5041998;28;20051;-78
2021/12/01 07:03:14;;;;;;;16.02;3.40;;;9.50;99.90;;;;;;5045833;28;20044;-76
2021/12/01 07:05:40;;;;;;;16.42;3.28;;;9.50;99.90;;;;;;5014731;28;20101;-79
2021/12/01 07:08:05;;;;;;;20.65;3.88;;;9.50;99.90;;;;;;5056406;28;20048;-77
2021/12/01 07:10:31;;;;;;;12.80;3.00;;;9.50;99.90;;;;;;5061960;28;20039;-77
2021/12/01 07:12:57;;;;;;;17.92;3.30;;;9.50;99.90;;;;;;5053729;28;20047;-78
2021/12/01 07:15:23;;;;;;;18.92;3.28;;;9.50;99.90;;;;;;5055063;28;20054;-77
2021/12/01 07:17:48;;;;;;;8.60;2.65;;;9.50;99.90;;;;;;5087559;28;20039;-77
2021/12/01 07:20:15;;;;;;;12.05;3.05;;;9.50;99.90;;;;;;5055138;28;20163;-76
2021/12/01 07:22:42;;;;;;;14.68;2.95;;;9.50;99.90;;;;;;5069744;28;20459;-79
2021/12/01 07:25:08;;;;;;;13.38;3.25;;;9.50;99.90;;;;;;5086913;28;20055;-77
2021/12/01 07:27:34;;;;;;;19.55;3.65;;;9.50;99.90;;;;;;5055225;28;20031;-78
2021/12/01 07:30:01;;;;;;;20.55;3.25;;;9.50;99.90;;;;;;5087301;28;20120;-76
2021/12/01 07:32:26;;;;;;;26.92;4.50;;;9.40;99.90;;;;;;5087346;28;20059;-77
2021/12/01 07:34:52;;;;;;;32.53;6.50;;;9.30;99.90;;;;;;5087054;28;20044;-77
2021/12/01 07:37:18;;;;;;;30.48;5.63;;;9.00;99.90;;;;;;5069467;28;20404;-77
2021/12/01 07:39:46;;;;;;;20.52;4.93;;;8.90;99.90;;;;;;5072753;28;20683;-76
2021/12/01 07:42:13;;;;;;;26.90;4.85;;;8.80;99.90;;;;;;5065260;28;20508;-77
2021/12/01 07:44:39;;;;;;;23.50;4.47;;;8.80;99.90;;;;;;5089584;28;20066;-77
2021/12/01 07:47:05;;;;;;;22.17;4.40;;;8.70;99.90;;;;;;5072419;28;20075;-78
2021/12/01 07:49:31;;;;;;;15.85;3.25;;;8.70;99.90;;;;;;5089507;28;20067;-77
2021/12/01 07:51:57;;;;;;;16.52;3.55;;;8.80;99.90;;;;;;5069957;28;20047;-77
2021/12/01 07:54:24;;;;;;;14.82;3.42;;;8.90;99.90;;;;;;5088990;28;20476;-78
2021/12/01 07:56:50;;;;;;;18.10;4.05;;;8.90;99.90;;;;;;5071671;28;20527;-78
2021/12/01 07:59:16;;;;;;;11.90;2.45;;;8.90;99.90;;;;;;5068824;28;20055;-78
2021/12/01 08:01:43;;;;;;;18.17;3.03;;;8.90;99.90;;;;;;5072983;28;20047;-77
2021/12/01 08:04:10;;;;;;;11.30;3.05;;;8.90;99.90;;;;;;5071761;28;20040;-77
2021/12/01 08:06:36;;;;;;;16.98;3.85;;;8.80;99.90;;;;;;5088599;28;20056;-77
2021/12/01 08:09:03;;;;;;;14.32;2.92;;;8.80;99.90;;;;;;5071905;28;20108;-77
2021/12/01 08:11:29;;;;;;;17.88;3.40;;;8.80;99.90;;;;;;5063336;28;20044;-77
2021/12/01 08:13:55;;;;;;;22.08;3.75;;;8.80;99.90;;;;;;5055785;28;20051;-78
2021/12/01 08:16:21;;;;;;;20.67;4.22;;;8.80;99.90;;;;;;5089411;28;20044;-78
2021/12/01 08:18:56;;;;;;;18.75;3.80;;;8.80;99.90;;;;;;5088922;28;20373;-78
2021/12/01 08:21:23;;;;;;;31.20;5.10;;;8.80;99.90;;;;;;5054398;28;20059;-77
2021/12/01 08:23:50;;;;;;;19.35;3.70;;;8.80;99.90;;;;;;5069941;28;20325;-78
2021/12/01 08:26:15;;;;;;;21.88;3.63;;;8.70;99.90;;;;;;5069137;28;20075;-77
2021/12/01 08:28:42;;;;;;;17.90;3.88;;;8.50;99.90;;;;;;5052432;28;20075;-78
2021/12/01 08:31:08;;;;;;;21.08;3.95;;;8.50;99.90;;;;;;5056808;28;20052;-77
2021/12/01 08:33:34;;;;;;;19.30;3.60;;;8.50;99.90;;;;;;5072156;28;20205;-78
2021/12/01 08:36:00;;;;;;;21.02;3.50;;;8.40;99.90;;;;;;5074852;28;20090;-77
2021/12/01 08:38:26;;;;;;;19.95;4.00;;;8.50;99.90;;;;;;5091011;28;20048;-79
2021/12/01 08:40:52;;;;;;;23.13;3.20;;;8.50;99.90;;;;;;5053960;28;20051;-80
2021/12/01 08:43:18;;;;;;;17.42;3.17;;;8.40;99.90;;;;;;5059075;28;20132;-78
2021/12/01 08:45:43;;;;;;;21.10;3.15;;;8.40;99.90;;;;;;5072986;28;20076;-79
2021/12/01 08:48:09;;;;;;;18.00;3.08;;;8.40;99.90;;;;;;5058284;28;20043;-79
2021/12/01 08:50:35;;;;;;;15.25;2.60;;;8.40;99.90;;;;;;5036582;28;20036;-82
2021/12/01 08:53:01;;;;;;;16.38;3.25;;;8.40;99.90;;;;;;5057404;28;20164;-82
2021/12/01 08:55:27;;;;;;;13.57;3.03;;;8.40;99.90;;;;;;5088250;28;20054;-82
2021/12/01 08:57:53;;;;;;;19.88;3.00;;;8.40;99.90;;;;;;5091515;28;20409;-81
2021/12/01 09:00:20;;;;;;;17.38;2.80;;;8.30;99.90;;;;;;5084598;28;20039;-81
2021/12/01 09:02:46;;;;;;;17.00;2.53;;;8.30;99.90;;;;;;5075451;28;20048;-82
2021/12/01 09:05:12;;;;;;;17.55;3.28;;;8.90;99.90;;;;;;5074357;28;20057;-81
2021/12/01 09:07:39;;;;;;;22.90;3.33;;;8.30;99.90;;;;;;5073080;28;20432;-81
2021/12/01 09:10:06;;;;;;;15.88;3.55;;;8.30;99.90;;;;;;5074122;28;20508;-82
2021/12/01 09:12:32;;;;;;;16.23;3.20;;;8.30;99.90;;;;;;5065550;28;20390;-79
2021/12/01 09:14:58;;;;;;;20.95;3.60;;;8.30;99.90;;;;;;5074192;28;20051;-82
2021/12/01 09:17:25;;;;;;;19.17;3.88;;;7.60;99.90;;;;;;5073870;28;20556;-81
2021/12/01 09:19:52;;;;;;;23.20;3.80;;;8.30;99.90;;;;;;5092112;28;20490;-82
2021/12/01 09:22:19;;;;;;;16.48;3.13;;;8.40;99.90;;;;;;5073877;28;20047;-81
2021/12/01 09:24:48;;;;;;;17.45;3.47;;;8.40;99.90;;;;;;5091245;28;20044;-81
2021/12/01 09:27:15;;;;;;;21.45;3.75;;;8.50;99.90;;;;;;5072716;28;20104;-82
2021/12/01 09:29:41;;;;;;;15.85;3.75;;;8.60;99.90;;;;;;5074557;28;20043;-82
2021/12/01 09:32:07;;;;;;;19.10;4.13;;;8.70;99.90;;;;;;5072072;28;20052;-81
2021/12/01 09:34:33;;;;;;;12.82;3.42;;;8.80;99.90;;;;;;5058035;28;20054;-82
2021/12/01 09:36:59;;;;;;;19.35;3.80;;;8.90;99.90;;;;;;5057012;28;20043;-82
2021/12/01 09:39:26;;;;;;;22.13;4.35;;;8.80;99.90;;;;;;5073877;28;20051;-82
2021/12/01 09:41:52;;;;;;;24.63;4.95;;;8.70;99.90;;;;;;5072545;28;20032;-82
2021/12/01 09:44:18;;;;;;;28.13;5.00;;;8.60;99.90;;;;;;5090872;28;20127;-81
2021/12/01 09:46:44;;;;;;;19.92;3.92;;;8.60;99.90;;;;;;5071326;28;20046;-81
2021/12/01 09:49:10;;;;;;;23.38;4.07;;;8.50;99.90;;;;;;5050139;28;20043;-81
2021/12/01 09:51:36;;;;;;;32.50;4.47;;;8.50;99.90;;;;;;5066250;28;20058;-77
2021/12/01 09:54:02;;;;;;;22.48;3.58;;;8.40;99.90;;;;;;5073642;28;20079;-78
2021/12/01 09:56:30;;;;;;;21.73;3.88;;;8.20;99.90;;;;;;5071123;28;20080;-78
2021/12/01 09:58:56;;;;;;;26.65;3.83;;;8.00;99.90;;;;;;5066911;28;20043;-78
2021/12/01 10:01:24;;;;;;;21.30;3.50;;;8.00;99.90;;;;;;5087553;28;20052;-76
2021/12/01 10:03:51;;;;;;;19.48;3.50;;;8.00;99.90;;;;;;5071583;28;20055;-82
2021/12/01 10:06:19;;;;;;;18.30;4.25;;;8.10;99.90;;;;;;5073880;28;20043;-82
2021/12/01 10:08:54;;;;;;;17.27;3.55;;;8.20;99.90;;;;;;5074252;28;20545;-80
2021/12/01 10:11:31;;;;;;;17.98;4.15;;;8.30;99.90;;;;;;5088652;28;20054;-80
2021/12/01 10:14:03;;;;;;;16.52;3.38;;;8.30;99.90;;;;;;5073307;28;20050;-81
2021/12/01 10:16:33;;;;;;;18.33;3.03;;;8.40;99.90;;;;;;5065774;28;20063;-78
2021/12/01 10:19:05;;;;;;;19.60;4.35;;;8.50;99.90;;;;;;5088174;28;20067;-77
2021/12/01 10:21:40;;;;;;;12.68;2.60;;;8.50;99.90;;;;;;5087475;28;20051;-78
2021/12/01 10:24:13;;;;;;;18.58;3.08;;;8.60;99.90;;;;;;5071684;28;20047;-78
2021/12/01 10:26:41;;;;;;;20.73;2.80;;;8.60;99.90;;;;;;5088995;28;20047;-79
2021/12/01 10:29:13;;;;;;;19.63;3.97;;;8.60;99.90;;;;;;5090037;28;20051;-79
2021/12/01 10:31:43;;;;;;;24.20;3.75;;;8.70;99.90;;;;;;5081726;28;20141;-78
2021/12/01 10:34:31;;;;;;;18.73;3.42;;;8.70;99.90;;;;;;5070390;28;20091;-77
2021/12/01 10:37:18;;;;;;;19.08;4.10;;;8.70;99.90;;;;;;5088652;28;20093;-78
2021/12/01 10:40:00;;;;;;;26.48;3.65;;;8.60;99.90;;;;;;5064468;28;20039;-79
2021/12/01 10:42:26;;;;;;;20.77;3.85;;;8.60;99.90;;;;;;5066910;28;20046;-78
2021/12/01 10:45:05;;;;;;;20.25;3.50;;;8.70;99.90;;;;;;5072627;28;20048;-78
2021/12/01 10:47:43;;;;;;;25.92;4.00;;;8.90;99.90;;;;;;5090214;28;20458;-77
2021/12/01 10:50:11;;;;;;;25.45;4.90;;;9.10;99.90;;;;;;5088862;28;20050;-78
2021/12/01 10:52:40;;;;;;;22.25;3.92;;;9.10;99.90;;;;;;5064180;28;20051;-78
2021/12/01 10:55:13;;;;;;;25.17;4.35;;;9.10;99.90;;;;;;5071487;28;20051;-79
2021/12/01 10:57:54;;;;;;;25.38;4.32;;;9.10;99.90;;;;;;5071379;28;20077;-79
2021/12/01 11:00:24;;;;;;;23.40;4.55;;;9.00;99.90;;;;;;5088073;28;20062;-80
2021/12/01 11:03:09;;;;;;;21.90;4.10;;;9.00;99.90;;;;;;5071069;28;20048;-80
2021/12/01 11:05:56;;;;;;;20.92;4.00;;;9.00;99.90;;;;;;5089032;28;20047;-79
2021/12/01 11:08:29;;;;;;;18.20;3.72;;;9.00;99.90;;;;;;5088364;28;20056;-81
2021/12/01 11:11:03;;;;;;;20.02;4.22;;;9.00;99.90;;;;;;5071492;28;20524;-82
2021/12/01 11:13:29;;;;;;;19.90;3.80;;;9.30;99.90;;;;;;5071922;28;20048;-80
2021/12/01 11:15:57;;;;;;;25.95;4.10;;;8.90;99.90;;;;;;5089184;28;20050;-82
2021/12/01 11:18:25;;;;;;;15.63;3.00;;;8.80;99.90;;;;;;5064480;28;20451;-80
2021/12/01 11:21:14;;;;;;;21.35;3.58;;;8.80;99.90;;;;;;5087260;28;20104;-82
2021/12/01 11:23:46;;;;;;;19.25;3.50;;;8.70;99.90;;;;;;5058116;28;20131;-81
2021/12/01 11:26:20;;;;;;;23.17;4.10;;;8.70;99.90;;;;;;5088854;28;20405;-80
2021/12/01 11:28:56;;;;;;;29.55;4.03;;;8.60;99.90;;;;;;5073063;28;20062;-78
2021/12/01 11:31:32;;;;;;;14.85;2.70;;;8.50;99.90;;;;;;5072166;28;20083;-78
2021/12/01 11:34:00;;;;;;;15.40;2.72;;;8.50;99.90;;;;;;5073001;28;20054;-82
2021/12/01 11:36:32;;;;;;;15.02;3.25;;;8.50;99.90;;;;;;5073405;28;20051;-79
2021/12/01 11:39:00;;;;;;;14.20;3.03;;;8.50;99.90;;;;;;5088431;28;20048;-81
2021/12/01 11:41:31;;;;;;;21.45;3.50;;;8.50;99.90;;;;;;5088107;28;20059;-79
2021/12/01 11:43:58;;;;;;;21.15;3.63;;;8.40;99.90;;;;;;5039792;28;20126;-81
2021/12/01 11:46:24;;;;;;;18.50;3.38;;;8.40;99.90;;;;;;5073000;28;20058;-79
2021/12/01 11:48:55;;;;;;;15.27;2.83;;;8.30;99.90;;;;;;5057571;28;20048;-79
2021/12/01 11:51:53;;;;;;;13.15;2.75;;;8.40;99.90;;;;;;5055280;28;20521;-79
2021/12/01 11:54:21;;;;;;;13.63;2.45;;;8.40;99.90;;;;;;5071830;28;20044;-79
2021/12/01 11:56:56;;;;;;;11.57;2.60;;;8.40;99.90;;;;;;5073545;28;20052;-79
2021/12/01 11:59:30;;;;;;;16.77;2.75;;;8.40;99.90;;;;;;5090282;28;20142;-78
2021/12/01 12:02:00;;;;;;;13.30;3.05;;;8.40;99.90;;;;;;5090308;28;20061;-79
2021/12/01 12:04:45;;;;;;;11.20;2.10;;;8.30;99.90;;;;;;5091274;28;20056;-79
2021/12/01 12:07:29;;;;;;;16.92;2.65;;;8.20;99.90;;;;;;5067909;28;20120;-79
2021/12/01 12:10:03;;;;;;;15.15;3.05;;;8.20;99.90;;;;;;5074435;28;20044;-79
2021/12/01 12:12:59;;;;;;;19.80;3.03;;;8.20;99.90;;;;;;5076328;28;20055;-79
2021/12/01 12:15:41;;;;;;;14.05;2.65;;;8.10;99.90;;;;;;5093044;28;20139;-79
2021/12/01 12:18:11;;;;;;;15.10;2.67;;;8.10;99.90;;;;;;5091000;28;20054;-78
2021/12/01 12:20:45;;;;;;;11.35;2.60;;;8.50;99.90;;;;;;5071390;28;20501;-78
2021/12/01 12:23:12;;;;;;;10.32;2.42;;;8.40;99.90;;;;;;5057574;28;20048;-78
2021/12/01 12:25:47;;;;;;;16.63;3.63;;;8.30;99.90;;;;;;5087646;28;20250;-79
2021/12/01 12:28:24;;;;;;;18.55;3.88;;;8.10;99.90;;;;;;5069578;28;20067;-79
2021/12/01 12:30:51;;;;;;;13.52;3.20;;;8.10;99.90;;;;;;5073796;28;20051;-79
2021/12/01 12:33:24;;;;;;;16.23;3.33;;;8.10;99.90;;;;;;5072545;28;20043;-78
2021/12/01 12:35:55;;;;;;;10.18;2.47;;;8.00;99.90;;;;;;5073306;28;20047;-78
2021/12/01 12:38:21;;;;;;;13.65;3.20;;;8.00;99.90;;;;;;5070808;28;20031;-78
2021/12/01 12:40:47;;;;;;;13.93;2.92;;;8.00;99.90;;;;;;5082017;28;20082;-80
2021/12/01 12:43:23;;;;;;;16.42;3.35;;;8.00;99.90;;;;;;5056598;28;20120;-79
2021/12/01 12:46:06;;;;;;;15.30;2.92;;;8.00;99.90;;;;;;5072986;28;20100;-78
2021/12/01 12:48:53;;;;;;;17.10;3.35;;;7.90;99.90;;;;;;5066963;28;20129;-79
2021/12/01 12:51:30;;;;;;;13.95;2.58;;;7.90;99.90;;;;;;5089832;28;20083;-79
2021/12/01 12:53:59;;;;;;;11.15;2.42;;;7.90;99.90;;;;;;5073572;28;20052;-80
2021/12/01 12:56:30;;;;;;;11.45;2.55;;;7.90;99.90;;;;;;5091965;28;20040;-79
2021/12/01 12:59:31;;;;;;;17.13;3.35;;;8.20;99.90;;;;;;5092368;28;20044;-80
2021/12/01 13:02:17;;;;;;;17.83;2.80;;;7.90;99.90;;;;;;5083655;28;20083;-79